createdAt,value
2023-05-16T00:00:59.621Z,89.19
2023-05-16T00:02:40.251Z,89.49
2023-05-16T00:04:20.528Z,89.16
2023-05-16T00:06:00.841Z,89.3
2023-05-16T00:07:41.248Z,89.32
2023-05-16T00:09:21.718Z,89.21
2023-05-16T00:11:02.182Z,89.58
2023-05-16T00:12:42.579Z,89.5
2023-05-16T00:14:22.940Z,89.57
2023-05-16T00:16:03.303Z,89.35
2023-05-16T00:17:43.744Z,89.33
2023-05-16T00:19:24.112Z,88.66
2023-05-16T00:21:04.560Z,89.09
2023-05-16T00:22:45.027Z,89.33
2023-05-16T00:24:25.448Z,89.19
2023-05-16T00:26:05.881Z,89.25
2023-05-16T00:27:46.255Z,89.19
2023-05-16T00:29:26.696Z,89.2
2023-05-16T00:31:07.134Z,89.44
2023-05-16T00:32:47.630Z,89.51
2023-05-16T00:34:28.183Z,89.26
2023-05-16T00:36:08.426Z,89.72
2023-05-16T00:37:48.803Z,89.36
2023-05-16T00:39:29.192Z,89.4
2023-05-16T00:41:09.606Z,89.78
2023-05-16T00:42:49.992Z,89.64
2023-05-16T00:44:30.509Z,89.34
2023-05-16T00:46:10.922Z,89.28
2023-05-16T00:47:51.494Z,89.36
2023-05-16T00:49:31.775Z,89.79
2023-05-16T00:51:12.152Z,89.83
2023-05-16T00:52:52.508Z,89.87
2023-05-16T00:54:32.882Z,89.39
2023-05-16T00:56:13.310Z,89.59
2023-05-16T00:57:53.841Z,89.41
2023-05-16T00:59:34.224Z,89.32
2023-05-16T01:01:14.681Z,89.43
2023-05-16T01:02:55.144Z,89.2
2023-05-16T01:04:35.458Z,88.89
2023-05-16T01:06:15.826Z,89.01
2023-05-16T01:07:56.226Z,89.31
2023-05-16T01:09:36.625Z,89.46
2023-05-16T01:11:17.100Z,89.22
2023-05-16T01:12:57.416Z,89.17
2023-05-16T01:14:37.885Z,89.15
2023-05-16T01:16:18.353Z,89.19
2023-05-16T01:17:58.818Z,89.01
2023-05-16T01:19:39.191Z,89.29
2023-05-16T01:21:19.584Z,89.3
2023-05-16T01:22:59.958Z,89.22
2023-05-16T01:24:40.302Z,89.03
2023-05-16T01:26:20.759Z,89.19
2023-05-16T01:28:01.176Z,89.21
2023-05-16T01:29:41.617Z,89.23
2023-05-16T01:31:22.025Z,89.43
2023-05-16T01:33:02.425Z,89.24
2023-05-16T01:34:42.761Z,89.42
2023-05-16T01:36:23.182Z,89.66
2023-05-16T01:38:03.591Z,89.98
2023-05-16T01:39:44.059Z,89.86
2023-05-16T01:41:24.438Z,89.91
2023-05-16T01:43:04.779Z,89.6
2023-05-16T01:44:45.238Z,89.87
2023-05-16T01:46:25.628Z,89.76
2023-05-16T01:48:06.104Z,89.53
2023-05-16T01:49:46.437Z,89.81
2023-05-16T01:51:26.792Z,89.71
2023-05-16T01:53:07.159Z,89.95
2023-05-16T01:54:47.587Z,90.05
2023-05-16T01:56:28.130Z,90.28
2023-05-16T01:58:08.512Z,90.19
2023-05-16T01:59:48.875Z,90.24
2023-05-16T02:01:29.400Z,90.55
2023-05-16T02:03:09.825Z,90.25
2023-05-16T02:04:50.053Z,90.12
2023-05-16T02:06:30.435Z,90.11
2023-05-16T02:08:10.885Z,89.54
2023-05-16T02:09:51.260Z,89.54
2023-05-16T02:11:31.594Z,89.38
2023-05-16T02:13:11.914Z,89.63
2023-05-16T02:14:52.390Z,89.93
2023-05-16T02:16:32.719Z,89.97
2023-05-16T02:18:13.250Z,89.69
2023-05-16T02:19:53.512Z,89.75
2023-05-16T02:21:33.927Z,89.72
2023-05-16T02:23:14.355Z,89.05
2023-05-16T02:24:54.777Z,88.56
2023-05-16T02:26:35.196Z,88.71
2023-05-16T02:28:15.642Z,88.54
2023-05-16T02:29:56.072Z,88.56
2023-05-16T02:31:36.463Z,88.58
2023-05-16T02:33:16.732Z,88.65
2023-05-16T02:34:57.145Z,88.61
2023-05-16T02:36:37.545Z,88.24
2023-05-16T02:38:17.929Z,88.56
2023-05-16T02:39:58.326Z,88.46
2023-05-16T02:41:38.764Z,88.39
2023-05-16T02:43:19.201Z,88.23
2023-05-16T02:44:59.559Z,88.34
2023-05-16T02:46:40.159Z,87.95
2023-05-16T02:48:20.408Z,88.15
2023-05-16T02:50:00.755Z,87.95
2023-05-16T02:51:41.195Z,88.06
2023-05-16T02:53:21.615Z,88.11
2023-05-16T02:55:16.824Z,88.22
2023-05-16T02:56:42.460Z,87.62
2023-05-16T02:58:22.932Z,87.88
2023-05-16T03:00:03.360Z,87.98
2023-05-16T03:01:43.830Z,87.54
2023-05-16T03:03:24.305Z,87.72
2023-05-16T03:05:04.590Z,87.69
2023-05-16T03:06:44.961Z,87.8
2023-05-16T03:08:25.410Z,88.15
2023-05-16T03:10:05.834Z,88.38
2023-05-16T03:11:46.184Z,88.46
2023-05-16T03:13:26.574Z,88.46
2023-05-16T03:15:06.920Z,88.51
2023-05-16T03:16:47.523Z,88.47
2023-05-16T03:18:27.751Z,88.8
2023-05-16T03:20:08.156Z,88.74
2023-05-16T03:21:48.529Z,88.12
2023-05-16T03:23:28.927Z,88.28
2023-05-16T03:25:09.257Z,88.24
2023-05-16T03:26:49.630Z,88.22
2023-05-16T03:28:30.031Z,88.34
2023-05-16T03:30:10.473Z,88.38
2023-05-16T03:31:50.881Z,88.44
2023-05-16T03:33:31.303Z,88.57
2023-05-16T03:35:11.812Z,88.81
2023-05-16T03:36:52.171Z,88.6
2023-05-16T03:38:32.689Z,88.49
2023-05-16T03:40:13.073Z,88.65
2023-05-16T03:41:53.479Z,89.24
2023-05-16T03:43:33.879Z,89.92
2023-05-16T03:45:14.276Z,90.12
2023-05-16T03:46:54.580Z,90.38
2023-05-16T03:48:35.065Z,90.49
2023-05-16T03:50:15.553Z,90.87
2023-05-16T03:51:55.958Z,90.74
2023-05-16T03:53:36.360Z,91.26
2023-05-16T03:55:16.740Z,91.75
2023-05-16T03:56:57.184Z,92.03
2023-05-16T03:58:37.594Z,92.49
2023-05-16T04:00:17.954Z,92.67
2023-05-16T04:01:58.390Z,92.88
2023-05-16T04:03:38.764Z,92.68
2023-05-16T04:05:19.121Z,92.7
2023-05-16T04:06:59.579Z,92.77
2023-05-16T04:08:40.010Z,92.95
2023-05-16T04:10:20.469Z,93.08
2023-05-16T04:12:00.921Z,92.94
2023-05-16T04:13:41.386Z,93.01
2023-05-16T04:15:21.730Z,93.16
2023-05-16T04:17:02.234Z,93.29
2023-05-16T04:18:42.651Z,93.17
2023-05-16T04:20:23.018Z,93.14
2023-05-16T04:22:03.409Z,93.27
2023-05-16T04:23:43.776Z,93.4
2023-05-16T04:25:24.344Z,93.44
2023-05-16T04:27:04.632Z,92.36
2023-05-16T04:28:45.087Z,90.76
2023-05-16T04:30:25.528Z,89.99
2023-05-16T04:32:05.961Z,90.24
2023-05-16T04:33:46.385Z,90.09
2023-05-16T04:35:27.004Z,89.97
2023-05-16T04:37:07.194Z,90.41
2023-05-16T04:38:47.570Z,89.91
2023-05-16T04:40:28.031Z,90.35
2023-05-16T04:42:08.503Z,89.95
2023-05-16T04:43:48.864Z,89.51
2023-05-16T04:45:29.488Z,88.41
2023-05-16T04:47:09.758Z,88.47
2023-05-16T04:48:50.244Z,88.78
2023-05-16T04:50:30.634Z,88.98
2023-05-16T04:52:11.112Z,88.68
2023-05-16T04:53:51.580Z,89.55
2023-05-16T04:55:31.930Z,88.5
2023-05-16T04:57:12.317Z,89.09
2023-05-16T04:58:52.748Z,88.29
2023-05-16T05:00:33.234Z,88.58
2023-05-16T05:02:13.696Z,88.95
2023-05-16T05:03:54.118Z,88.3
2023-05-16T05:05:34.678Z,88.6
2023-05-16T05:07:15.082Z,89
2023-05-16T05:08:55.474Z,89.05
2023-05-16T05:10:35.942Z,89.39
2023-05-16T05:12:16.416Z,89.52
2023-05-16T05:13:56.814Z,89.02
2023-05-16T05:15:37.235Z,89.3
2023-05-16T05:17:17.635Z,89.17
2023-05-16T05:18:58.142Z,88.83
2023-05-16T05:20:38.483Z,88.96
2023-05-16T05:22:18.941Z,89.48
2023-05-16T05:23:59.369Z,88.87
2023-05-16T05:25:39.759Z,88.59
2023-05-16T05:27:20.125Z,89.7
2023-05-16T05:29:05.268Z,89.25
2023-05-16T05:30:43.112Z,88.75
2023-05-16T05:32:21.437Z,87.89
2023-05-16T05:34:01.905Z,88.06
2023-05-16T05:35:42.327Z,87.91
2023-05-16T05:37:22.621Z,86.85
2023-05-16T05:39:03.020Z,87.2
2023-05-16T05:40:43.382Z,87.72
2023-05-16T05:42:23.806Z,87.11
2023-05-16T05:44:04.264Z,85.35
2023-05-16T05:45:44.749Z,85.12
2023-05-16T05:47:25.247Z,85.28
2023-05-16T05:49:05.593Z,84.94
2023-05-16T05:50:46.068Z,84.72
2023-05-16T05:52:26.463Z,84.7
2023-05-16T05:54:06.839Z,82.95
2023-05-16T05:55:47.294Z,83.94
2023-05-16T05:57:27.747Z,84.96
2023-05-16T05:59:08.157Z,83.63
2023-05-16T06:00:48.604Z,83.54
2023-05-16T06:02:29.098Z,82.8
2023-05-16T06:04:09.454Z,82.87
2023-05-16T06:05:49.940Z,82.83
2023-05-16T06:07:30.273Z,83.47
2023-05-16T06:09:10.650Z,81.94
2023-05-16T06:10:51.066Z,82.22
2023-05-16T06:12:31.475Z,82.06
2023-05-16T06:14:11.877Z,81.61
2023-05-16T06:15:52.331Z,81.12
2023-05-16T06:17:32.791Z,81.17
2023-05-16T06:19:13.225Z,81.72
2023-05-16T06:20:53.616Z,82.57
2023-05-16T06:22:34.041Z,82.15
2023-05-16T06:24:14.531Z,81.39
2023-05-16T06:25:55.030Z,81.79
2023-05-16T06:27:35.545Z,82.49
2023-05-16T06:29:16.015Z,82.11
2023-05-16T06:30:56.485Z,81.44
2023-05-16T06:32:36.881Z,82.02
2023-05-16T06:34:17.236Z,81.9
2023-05-16T06:35:57.769Z,81.53
2023-05-16T06:37:38.505Z,82.05
2023-05-16T06:39:18.724Z,82
2023-05-16T06:40:59.178Z,82.94
2023-05-16T06:42:39.596Z,82.71
2023-05-16T06:44:19.984Z,81.98
2023-05-16T06:46:00.510Z,81.61
2023-05-16T06:47:40.941Z,81.28
2023-05-16T06:49:21.400Z,81.03
2023-05-16T06:51:01.816Z,81.68
2023-05-16T06:52:42.311Z,81.64
2023-05-16T06:54:22.682Z,80.44
2023-05-16T06:56:03.071Z,78.95
2023-05-16T06:57:43.434Z,79.09
2023-05-16T06:59:24.561Z,79.36
2023-05-16T07:01:04.265Z,78.16
2023-05-16T07:02:44.716Z,77.87
2023-05-16T07:04:25.018Z,77.68
2023-05-16T07:06:05.485Z,75.93
2023-05-16T07:07:45.899Z,74.99
2023-05-16T07:09:26.369Z,72.38
2023-05-16T07:11:06.761Z,69.57
2023-05-16T07:12:47.126Z,69.1
2023-05-16T07:14:27.550Z,68.36
2023-05-16T07:16:08.120Z,67.85
2023-05-16T07:17:48.583Z,66.5
2023-05-16T07:19:29.000Z,67.85
2023-05-16T07:21:09.252Z,67.24
2023-05-16T07:22:49.618Z,67.35
2023-05-16T07:24:29.905Z,67.38
2023-05-16T07:26:10.414Z,65.32
2023-05-16T07:27:50.838Z,64.8
2023-05-16T07:29:31.273Z,64.99
2023-05-16T07:31:11.774Z,62.77
2023-05-16T07:32:52.231Z,61.12
2023-05-16T07:34:32.588Z,62.35
2023-05-16T07:36:16.835Z,60.78
2023-05-16T07:37:53.394Z,61.03
2023-05-16T07:39:33.716Z,59.49
2023-05-16T07:41:14.218Z,59.01
2023-05-16T07:42:54.597Z,60.23
2023-05-16T07:44:35.041Z,61.6
2023-05-16T07:46:15.462Z,60.92
2023-05-16T07:47:55.854Z,61.53
2023-05-16T07:49:36.208Z,59.86
2023-05-16T07:51:16.653Z,59.21
2023-05-16T07:52:56.985Z,58.77
2023-05-16T07:54:37.373Z,56.9
2023-05-16T07:56:17.844Z,56.66
2023-05-16T07:57:58.382Z,56.98
2023-05-16T07:59:38.881Z,56.49
2023-05-16T08:01:19.177Z,54.89
2023-05-16T08:02:59.670Z,55.69
2023-05-16T08:04:39.913Z,55.52
2023-05-16T08:06:20.245Z,58.39
2023-05-16T08:08:00.607Z,56.43
2023-05-16T08:09:41.005Z,53.64
2023-05-16T08:11:21.404Z,54.39
2023-05-16T08:13:01.793Z,55.9
2023-05-16T08:14:42.218Z,55.2
2023-05-16T08:16:22.626Z,56.46
2023-05-16T08:18:03.035Z,56.62
2023-05-16T08:19:43.482Z,56.46
2023-05-16T08:21:23.912Z,57.6
2023-05-16T08:23:04.296Z,57.54
2023-05-16T08:24:44.730Z,58.11
2023-05-16T08:26:25.095Z,57.64
2023-05-16T08:28:05.571Z,58.82
2023-05-16T08:29:45.967Z,58.51
2023-05-16T08:31:26.475Z,58.97
2023-05-16T08:33:06.957Z,60.38
2023-05-16T08:34:47.283Z,57.9
2023-05-16T08:36:27.657Z,58.72
2023-05-16T08:38:08.061Z,56.01
2023-05-16T08:39:48.474Z,55.35
2023-05-16T08:41:28.898Z,55.03
2023-05-16T08:43:09.319Z,57.32
2023-05-16T08:49:06.718Z,0
2023-05-16T08:50:47.099Z,50.81
2023-05-16T08:52:27.452Z,51.2
2023-05-16T08:54:07.935Z,49.97
2023-05-16T08:55:48.300Z,51.32
2023-05-16T08:57:28.522Z,51.28
2023-05-16T08:59:08.918Z,52.04
2023-05-16T09:00:49.386Z,53.37
2023-05-16T09:02:29.712Z,52.74
2023-05-16T09:04:10.234Z,51.51
2023-05-16T09:05:50.557Z,48.98
2023-05-16T09:07:31.001Z,50.39
2023-05-16T09:09:11.475Z,51.73
2023-05-16T09:10:51.951Z,50.6
2023-05-16T09:12:32.495Z,49.23
2023-05-16T09:14:12.899Z,49.88
2023-05-16T09:15:53.307Z,49.59
2023-05-16T09:17:39.633Z,49.51
2023-05-16T09:19:14.211Z,49.49
2023-05-16T09:20:54.519Z,49.67
2023-05-16T09:22:34.897Z,51.75
2023-05-16T09:24:15.251Z,47.22
2023-05-16T09:25:55.687Z,47.14
2023-05-16T09:27:36.097Z,47.95
2023-05-16T09:29:16.558Z,48.83
2023-05-16T09:30:56.897Z,49.77
2023-05-16T09:32:37.305Z,50.6
2023-05-16T09:34:17.731Z,50.78
2023-05-16T09:35:58.155Z,50.04
2023-05-16T09:37:38.635Z,49.99
2023-05-16T09:39:18.956Z,51.38
2023-05-16T09:40:59.277Z,50.36
2023-05-16T09:42:39.696Z,50.22
2023-05-16T09:44:20.230Z,47.77
2023-05-16T09:46:00.757Z,49.44
2023-05-16T09:47:41.169Z,47.18
2023-05-16T09:49:21.584Z,47.17
2023-05-16T09:51:02.542Z,46.48
2023-05-16T09:52:42.458Z,45.71
2023-05-16T09:54:22.902Z,47.24
2023-05-16T09:56:03.216Z,43.94
2023-05-16T09:57:43.636Z,43
2023-05-16T09:59:24.068Z,43.72
2023-05-16T10:01:04.591Z,45.6
2023-05-16T10:02:45.049Z,44.44
2023-05-16T10:04:25.461Z,43.41
2023-05-16T10:06:05.771Z,44.47
2023-05-16T10:07:46.072Z,43.83
2023-05-16T10:09:26.595Z,45
2023-05-16T10:11:07.132Z,41.99
2023-05-16T10:12:47.522Z,42.43
2023-05-16T10:14:27.906Z,43.69
2023-05-16T10:16:08.598Z,45.54
2023-05-16T10:17:48.826Z,45.27
2023-05-16T10:19:29.329Z,44.93
2023-05-16T10:21:11.607Z,44.05
2023-05-16T10:22:50.164Z,43.1
2023-05-16T10:24:30.601Z,42.07
2023-05-16T10:26:11.036Z,43.68
2023-05-16T10:27:51.491Z,43.18
2023-05-16T10:29:40.056Z,42.24
2023-05-16T10:31:12.453Z,41.59
2023-05-16T10:32:52.927Z,41.66
2023-05-16T10:34:33.244Z,42.9
2023-05-16T10:36:13.645Z,41.88
2023-05-16T10:37:54.024Z,42.52
2023-05-16T10:39:34.432Z,38.68
2023-05-16T10:41:14.846Z,39.56
2023-05-16T10:42:55.286Z,38.04
2023-05-16T10:44:35.688Z,38.52
2023-05-16T10:46:16.174Z,39.14
2023-05-16T10:47:56.631Z,39.79
2023-05-16T10:49:36.994Z,38.54
2023-05-16T10:51:17.565Z,39.88
2023-05-16T10:52:57.914Z,40.67
2023-05-16T10:54:38.368Z,38.58
2023-05-16T10:56:18.817Z,40.65
2023-05-16T10:57:59.243Z,39.45
2023-05-16T10:59:39.695Z,40.11
2023-05-16T11:01:20.227Z,41.26
2023-05-16T11:03:00.780Z,41
2023-05-16T11:04:41.030Z,43.24
2023-05-16T11:06:23.540Z,42.64
2023-05-16T11:08:01.862Z,42.81
2023-05-16T11:09:42.313Z,44.21
2023-05-16T11:11:22.740Z,42.35
2023-05-16T11:13:03.171Z,42.57
2023-05-16T11:14:43.743Z,39.38
2023-05-16T11:16:24.189Z,40.67
2023-05-16T11:18:04.678Z,40.41
2023-05-16T11:19:45.048Z,38.87
2023-05-16T11:21:25.397Z,40.2
2023-05-16T11:23:05.873Z,40.95
2023-05-16T11:24:46.286Z,38
2023-05-16T11:26:26.717Z,39.71
2023-05-16T11:28:07.133Z,41.62
2023-05-16T11:29:47.568Z,41.35
2023-05-16T11:31:28.101Z,40.61
2023-05-16T11:33:08.546Z,38.4
2023-05-16T11:34:48.876Z,37.13
2023-05-16T11:36:29.370Z,36.32
2023-05-16T11:38:10.785Z,37.94
2023-05-16T11:39:50.281Z,36.97
2023-05-16T11:41:30.671Z,39.09
2023-05-16T11:43:11.119Z,38.77
2023-05-16T11:44:51.553Z,39.99
2023-05-16T11:46:31.942Z,41.16
2023-05-16T11:48:19.007Z,41.19
2023-05-16T11:49:52.655Z,40.3
2023-05-16T11:51:33.010Z,41.6
2023-05-16T11:53:13.574Z,40
2023-05-16T11:54:53.962Z,41.39
2023-05-16T11:56:34.329Z,38.83
2023-05-16T11:58:14.709Z,40.24
2023-05-16T11:59:55.049Z,38.64
2023-05-16T12:01:35.575Z,39.85
2023-05-16T12:03:16.069Z,37.93
2023-05-16T12:04:56.462Z,37.22
2023-05-16T12:06:36.882Z,37.29
2023-05-16T12:08:17.282Z,36.41
2023-05-16T12:09:57.740Z,35.69
2023-05-16T12:11:38.148Z,36.22
2023-05-16T12:13:20.441Z,36.23
2023-05-16T12:14:59.003Z,37.24
2023-05-16T12:16:39.546Z,35.79
2023-05-16T12:18:19.979Z,35.41
2023-05-16T12:20:00.409Z,35.72
2023-05-16T12:21:40.796Z,35.53
2023-05-16T12:23:21.304Z,36.53
2023-05-16T12:25:01.716Z,35.16
2023-05-16T12:26:42.110Z,35.83
2023-05-16T12:28:22.566Z,35.9
2023-05-16T12:30:02.984Z,35.19
2023-05-16T12:31:43.381Z,34.92
2023-05-16T12:33:23.816Z,36.86
2023-05-16T12:35:04.157Z,35.94
2023-05-16T12:36:44.602Z,36.07
2023-05-16T12:38:25.040Z,36.14
2023-05-16T12:40:05.438Z,37.63
2023-05-16T12:41:45.905Z,37.46
2023-05-16T12:43:26.349Z,39.06
2023-05-16T12:45:06.815Z,38.96
2023-05-16T12:46:47.267Z,40.75
2023-05-16T12:48:27.695Z,41.14
2023-05-16T12:50:08.139Z,41.22
2023-05-16T12:51:48.592Z,41.75
2023-05-16T12:53:29.018Z,43.3
2023-05-16T12:55:09.488Z,43.42
2023-05-16T12:56:50.010Z,41.61
2023-05-16T12:58:30.567Z,40.45
2023-05-16T13:00:10.835Z,42.2
2023-05-16T13:01:51.262Z,40.67
2023-05-16T13:03:33.912Z,41.61
2023-05-16T13:05:12.033Z,41.53
2023-05-16T13:08:32.839Z,40.01
2023-05-16T13:10:13.268Z,38.52
2023-05-16T13:11:53.714Z,37.31
2023-05-16T13:13:36.536Z,37.28
2023-05-16T13:15:14.596Z,39.1
2023-05-16T13:16:54.956Z,38.83
2023-05-16T13:18:35.419Z,37.72
2023-05-16T13:20:15.927Z,35.37
2023-05-16T13:21:56.370Z,36.06
2023-05-16T13:23:36.745Z,35.24
2023-05-16T13:25:17.164Z,36.04
2023-05-16T13:26:57.592Z,35.54
2023-05-16T13:28:38.039Z,35.66
2023-05-16T13:30:18.501Z,34.99
2023-05-16T13:31:58.953Z,34.8
2023-05-16T13:33:39.261Z,35.84
2023-05-16T13:35:19.719Z,37.41
2023-05-16T13:37:00.227Z,38.74
2023-05-16T13:38:40.541Z,39.43
2023-05-16T13:40:21.006Z,38.01
2023-05-16T13:42:01.408Z,39.34
2023-05-16T13:43:42.129Z,39.3
2023-05-16T13:45:22.280Z,41.04
2023-05-16T13:47:02.733Z,41.36
2023-05-16T13:48:43.172Z,40.34
2023-05-16T13:50:23.589Z,41.69
2023-05-16T13:52:03.977Z,42.59
2023-05-16T13:53:44.393Z,42.46
2023-05-16T13:55:24.923Z,42.3
2023-05-16T13:57:05.290Z,42.35
2023-05-16T13:58:59.756Z,41.19
2023-05-16T14:00:42.822Z,41.03
2023-05-16T14:02:06.835Z,40.91
2023-05-16T14:03:47.250Z,40.36
2023-05-16T14:05:27.699Z,38.03
2023-05-16T14:07:08.084Z,37.92
2023-05-16T14:08:48.454Z,38.52
2023-05-16T14:10:29.135Z,37.16
2023-05-16T14:12:09.314Z,35.72
2023-05-16T14:13:49.712Z,36.07
2023-05-16T14:15:30.651Z,36.39
2023-05-16T14:17:10.544Z,36.19
2023-05-16T14:18:51.027Z,36.86
2023-05-16T14:20:31.363Z,34.52
2023-05-16T14:22:11.822Z,36.54
2023-05-16T14:23:52.276Z,37.2
2023-05-16T14:25:32.671Z,34.48
2023-05-16T14:27:13.044Z,36.57
2023-05-16T14:28:53.493Z,36.06
2023-05-16T14:30:33.849Z,36.27
2023-05-16T14:32:14.469Z,33.49
2023-05-16T14:33:54.662Z,34.49
2023-05-16T14:35:35.144Z,34.88
2023-05-16T14:37:15.532Z,35.01
2023-05-16T14:38:55.894Z,34.23
2023-05-16T14:40:36.353Z,36.12
2023-05-16T14:42:16.767Z,35.08
2023-05-16T14:43:57.273Z,35.39
2023-05-16T14:45:37.709Z,36.56
2023-05-16T14:47:18.120Z,36.24
2023-05-16T14:48:58.523Z,37.22
2023-05-16T14:50:38.917Z,39.63
2023-05-16T14:52:19.312Z,38.81
2023-05-16T14:53:59.747Z,37.92
2023-05-16T14:55:40.100Z,39.35
2023-05-16T14:56:12.587Z,0
2023-05-16T14:57:59.229Z,38.24
2023-05-16T14:59:33.362Z,38.37
2023-05-16T15:01:13.789Z,38.95
2023-05-16T15:02:54.221Z,39.8
2023-05-16T15:04:34.689Z,40.02
2023-05-16T15:06:15.128Z,39.5
2023-05-16T15:07:55.587Z,38.82
2023-05-16T15:09:36.004Z,39.69
2023-05-16T15:11:16.505Z,40.29
2023-05-16T15:12:56.883Z,40.7
2023-05-16T15:14:37.377Z,39.32
2023-05-16T15:16:17.766Z,40.15
2023-05-16T15:17:58.233Z,37.14
2023-05-16T15:19:38.616Z,34.45
2023-05-16T15:21:19.097Z,34.4
2023-05-16T15:22:59.488Z,34.74
2023-05-16T15:24:39.978Z,34.33
2023-05-16T15:26:20.307Z,32.87
2023-05-16T15:28:00.800Z,33.49
2023-05-16T15:29:41.293Z,32.42
2023-05-16T15:31:21.646Z,33.4
2023-05-16T15:33:02.127Z,32.8
2023-05-16T15:34:42.485Z,33.98
2023-05-16T15:36:22.944Z,34.42
2023-05-16T15:38:03.607Z,35.85
2023-05-16T15:39:44.031Z,36.31
2023-05-16T15:41:50.110Z,36.19
2023-05-16T15:43:04.776Z,35.27
2023-05-16T15:44:45.209Z,35.95
2023-05-16T15:46:25.777Z,36.85
2023-05-16T15:48:06.176Z,37.57
2023-05-16T15:49:46.560Z,37.85
2023-05-16T15:51:27.016Z,38.14
2023-05-16T15:53:07.440Z,38.21
2023-05-16T15:54:47.820Z,37.71
2023-05-16T15:56:28.237Z,36.52
2023-05-16T15:58:08.613Z,36.99
2023-05-16T15:59:49.015Z,37.08
2023-05-16T16:01:29.527Z,37.09
2023-05-16T16:03:09.980Z,36.63
2023-05-16T16:04:50.275Z,37.1
2023-05-16T16:06:30.664Z,38.15
2023-05-16T16:08:11.090Z,39.13
2023-05-16T16:09:51.475Z,40.14
2023-05-16T16:11:31.864Z,40.95
2023-05-16T16:13:12.313Z,42.75
2023-05-16T16:14:52.735Z,43.02
2023-05-16T16:16:33.290Z,43.27
2023-05-16T16:18:13.642Z,43.54
2023-05-16T16:19:54.063Z,44.11
2023-05-16T16:21:34.524Z,43.88
2023-05-16T16:23:14.958Z,45.02
2023-05-16T16:24:56.151Z,44.03
2023-05-16T16:26:35.646Z,44.53
2023-05-16T16:28:16.037Z,44.07
2023-05-16T16:29:56.452Z,43.3
2023-05-16T16:31:36.806Z,42.76
2023-05-16T16:33:17.234Z,41.77
2023-05-16T16:34:57.691Z,41.99
2023-05-16T16:36:37.979Z,42.68
2023-05-16T16:38:18.397Z,42.47
2023-05-16T16:39:58.827Z,42.5
2023-05-16T16:41:39.160Z,41.62
2023-05-16T16:43:19.622Z,42.58
2023-05-16T16:45:00.184Z,42.8
2023-05-16T16:46:40.776Z,42.4
2023-05-16T16:48:21.041Z,41.49
2023-05-16T16:50:01.507Z,41.79
2023-05-16T16:51:41.996Z,42.88
2023-05-16T16:53:22.452Z,41.43
2023-05-16T16:55:02.879Z,39.6
2023-05-16T16:56:43.298Z,40.05
2023-05-16T16:58:23.699Z,39.52
2023-05-16T17:00:04.136Z,39.27
2023-05-16T17:01:44.711Z,40.64
2023-05-16T17:03:25.115Z,41.2
2023-05-16T17:05:05.468Z,42.54
2023-05-16T17:06:47.838Z,42.93
2023-05-16T17:08:26.343Z,42.57
2023-05-16T17:10:06.809Z,43.24
2023-05-16T17:11:47.220Z,43.74
2023-05-16T17:13:27.714Z,44.34
2023-05-16T17:15:08.168Z,44.46
2023-05-16T17:16:48.590Z,44.76
2023-05-16T17:18:29.000Z,45.11
2023-05-16T17:20:09.339Z,44.41
2023-05-16T17:21:49.751Z,43.61
2023-05-16T17:23:30.129Z,43.64
2023-05-16T17:25:10.632Z,43.58
2023-05-16T17:26:50.932Z,43.72
2023-05-16T17:28:31.336Z,43.01
2023-05-16T17:30:11.755Z,43.81
2023-05-16T17:31:52.244Z,44.28
2023-05-16T17:33:32.728Z,44.4
2023-05-16T17:35:13.216Z,44.79
2023-05-16T17:36:53.670Z,44.2
2023-05-16T17:38:34.126Z,44.88
2023-05-16T17:40:14.523Z,44.37
2023-05-16T17:41:54.898Z,44.39
2023-05-16T17:43:35.378Z,44.27
2023-05-16T17:45:15.834Z,44.41
2023-05-16T17:46:56.313Z,43.36
2023-05-16T17:48:36.687Z,44.54
2023-05-16T17:50:17.159Z,44.66
2023-05-16T17:51:57.585Z,45.09
2023-05-16T17:53:37.979Z,44.55
2023-05-16T17:55:18.417Z,43.5
2023-05-16T17:56:58.796Z,43.35
2023-05-16T17:58:39.265Z,43.77
2023-05-16T18:00:19.648Z,43.91
2023-05-16T18:02:00.142Z,43.33
2023-05-16T18:03:40.688Z,44.59
2023-05-16T18:05:21.069Z,45.18
2023-05-16T18:07:01.418Z,45.02
2023-05-16T18:08:41.957Z,45.5
2023-05-16T18:10:22.436Z,46.82
2023-05-16T18:12:02.917Z,46.82
2023-05-16T18:13:43.330Z,46.44
2023-05-16T18:15:23.723Z,47.68
2023-05-16T18:17:04.114Z,47.82
2023-05-16T18:18:44.546Z,48.34
2023-05-16T18:20:25.048Z,49.4
2023-05-16T18:22:05.497Z,49.75
2023-05-16T18:23:46.017Z,50.42
2023-05-16T18:25:26.856Z,51.45
2023-05-16T18:27:06.820Z,50.81
2023-05-16T18:28:47.232Z,51.73
2023-05-16T18:30:27.619Z,51.8
2023-05-16T18:32:07.991Z,52.71
2023-05-16T18:33:48.396Z,53.03
2023-05-16T18:35:29.025Z,53.09
2023-05-16T18:37:09.266Z,53.61
2023-05-16T18:38:49.815Z,54.47
2023-05-16T18:40:30.172Z,54.61
2023-05-16T18:42:10.585Z,55.09
2023-05-16T18:43:50.933Z,55.18
2023-05-16T18:45:31.170Z,55.04
2023-05-16T18:47:11.619Z,55.68
2023-05-16T18:48:52.047Z,56.17
2023-05-16T18:50:32.400Z,56.79
2023-05-16T18:52:12.878Z,56.67
2023-05-16T18:53:53.373Z,56.95
2023-05-16T18:55:33.826Z,56.95
2023-05-16T18:57:14.182Z,57.08
2023-05-16T18:58:54.523Z,57.75
2023-05-16T19:00:35.049Z,57.63
2023-05-16T19:02:15.336Z,58.22
2023-05-16T19:03:56.017Z,58.04
2023-05-16T19:05:36.374Z,58.43
2023-05-16T19:07:16.626Z,58.6
2023-05-16T19:08:57.049Z,58.96
2023-05-16T19:10:37.512Z,58.95
2023-05-16T19:12:17.937Z,58.92
2023-05-16T19:13:58.366Z,59.17
2023-05-16T19:15:38.728Z,59.16
2023-05-16T19:17:19.252Z,59.72
2023-05-16T19:18:59.775Z,59.32
2023-05-16T19:20:40.191Z,60.04
2023-05-16T19:22:20.638Z,59.78
2023-05-16T19:24:01.010Z,59.99
2023-05-16T19:25:41.382Z,60.26
2023-05-16T19:27:21.839Z,60.63
2023-05-16T19:29:02.250Z,61.07
2023-05-16T19:30:42.641Z,61.14
2023-05-16T19:32:23.056Z,61.46
2023-05-16T19:34:03.461Z,61.57
2023-05-16T19:35:43.915Z,61.98
2023-05-16T19:37:24.343Z,61.83
2023-05-16T19:39:04.747Z,62.01
2023-05-16T19:40:45.134Z,61.88
2023-05-16T19:42:25.542Z,62.1
2023-05-16T19:44:05.963Z,62.3
2023-05-16T19:45:46.383Z,62.69
2023-05-16T19:47:26.802Z,62.58
2023-05-16T19:49:07.240Z,63.04
2023-05-16T19:50:47.603Z,63.25
2023-05-16T19:52:27.919Z,63.38
2023-05-16T19:54:08.337Z,63.82
2023-05-16T19:55:48.757Z,64.1
2023-05-16T19:57:29.301Z,64.31
2023-05-16T19:59:09.813Z,64.38
2023-05-16T20:00:50.235Z,64.6
2023-05-16T20:02:30.520Z,64.59
2023-05-16T20:04:11.124Z,64.81
2023-05-16T20:05:51.355Z,64.98
2023-05-16T20:07:31.718Z,65.21
2023-05-16T20:09:12.109Z,65.49
2023-05-16T20:10:52.464Z,65.66
2023-05-16T20:12:32.838Z,65.93
2023-05-16T20:14:13.212Z,66.15
2023-05-16T20:15:53.701Z,66.36
2023-05-16T20:17:34.150Z,66.59
2023-05-16T20:19:14.539Z,66.71
2023-05-16T20:20:55.818Z,66.95
2023-05-16T20:22:35.316Z,67.04
2023-05-16T20:24:15.703Z,67.37
2023-05-16T20:25:56.151Z,67.51
2023-05-16T20:27:36.633Z,67.86
2023-05-16T20:29:17.025Z,67.9
2023-05-16T20:30:57.383Z,68.28
2023-05-16T20:32:37.889Z,68.17
2023-05-16T20:34:18.165Z,68.5
2023-05-16T20:35:58.659Z,68.57
2023-05-16T20:37:39.088Z,68.7
2023-05-16T20:39:19.460Z,68.81
2023-05-16T20:40:59.835Z,68.99
2023-05-16T20:42:40.323Z,69.23
2023-05-16T20:44:20.701Z,69.56
2023-05-16T20:46:01.148Z,69.68
2023-05-16T20:47:41.706Z,69.66
2023-05-16T20:49:21.966Z,69.89
2023-05-16T20:51:02.468Z,70
2023-05-16T20:52:42.835Z,70.29
2023-05-16T20:54:23.268Z,70.43
2023-05-16T20:56:03.672Z,70.7
2023-05-16T20:57:44.108Z,70.97
2023-05-16T20:59:24.456Z,71.21
2023-05-16T21:01:04.906Z,71.49
2023-05-16T21:02:45.348Z,71.54
2023-05-16T21:04:25.597Z,71.75
2023-05-16T21:06:06.074Z,71.98
2023-05-16T21:07:46.323Z,72.19
2023-05-16T21:09:26.674Z,72.32
2023-05-16T21:11:07.111Z,72.4
2023-05-16T21:12:47.524Z,72.69
2023-05-16T21:14:27.942Z,72.72
2023-05-16T21:16:08.344Z,73
2023-05-16T21:17:48.921Z,73.34
2023-05-16T21:19:29.358Z,73.54
2023-05-16T21:21:09.691Z,73.65
2023-05-16T21:22:50.134Z,73.88
2023-05-16T21:24:30.575Z,74.1
2023-05-16T21:26:10.985Z,74.13
2023-05-16T21:27:51.363Z,74.34
2023-05-16T21:29:31.891Z,74.48
2023-05-16T21:31:12.292Z,74.63
2023-05-16T21:32:52.793Z,74.79
2023-05-16T21:34:33.179Z,74.92
2023-05-16T21:36:13.580Z,75.07
2023-05-16T21:37:53.981Z,75.07
2023-05-16T21:39:34.380Z,75.18
2023-05-16T21:41:14.805Z,75.23
2023-05-16T21:42:55.191Z,75.43
2023-05-16T21:44:35.652Z,75.37